createdAt,value
2016-06-06T08:40:13.792Z,15560
2016-06-06T08:40:29.730Z,15572
2016-06-06T08:41:43.952Z,15568
2016-06-06T08:42:43.986Z,15444
2016-06-06T08:43:44.036Z,15432
2016-06-06T08:44:29.585Z,15392
2016-06-06T08:45:44.103Z,15376
2016-06-06T08:46:29.933Z,15308
2016-06-06T08:47:29.968Z,15248
2016-06-06T08:48:30.002Z,15180
2016-06-06T08:49:29.896Z,15124
2016-06-06T08:50:29.944Z,15116
2016-06-06T08:51:30.119Z,15024
2016-06-06T08:52:30.154Z,15016
2016-06-06T08:53:30.187Z,14928
2016-06-06T08:54:30.221Z,14908
2016-06-06T08:55:30.099Z,14852
2016-06-06T08:56:44.476Z,14780
2016-06-06T08:57:30.354Z,14748
2016-06-06T08:58:45.606Z,14668
2016-06-06T08:59:45.282Z,14664
2016-06-06T09:00:30.440Z,14588
2016-06-06T09:01:30.459Z,14536
2016-06-06T09:02:30.352Z,14536
2016-06-06T09:03:30.542Z,14488
2016-06-06T09:04:30.576Z,14412
2016-06-06T09:05:30.595Z,14392
2016-06-06T09:06:30.644Z,14320
2016-06-06T09:07:30.662Z,14304
2016-06-06T09:08:30.711Z,14248
2016-06-06T09:09:30.746Z,14192
2016-06-06T09:10:30.780Z,14120
2016-06-06T09:11:30.814Z,14068
2016-06-06T09:12:45.036Z,13964
2016-06-06T09:13:30.897Z,13904
2016-06-06T09:14:30.931Z,13888
2016-06-06T09:15:45.136Z,13820
2016-06-06T09:16:30.827Z,13824
2016-06-06T09:17:45.221Z,13732
2016-06-06T09:18:31.067Z,13692
2016-06-06T09:19:31.101Z,13624
2016-06-06T09:20:31.135Z,13580
2016-06-06T09:21:31.028Z,13524
2016-06-06T09:22:31.187Z,13468
2016-06-06T09:23:31.221Z,13432
2016-06-06T09:25:31.288Z,13312
2016-06-06T09:26:31.323Z,13280
2016-06-06T09:27:31.357Z,13268
2016-06-06T09:28:45.594Z,13156
2016-06-06T09:29:31.128Z,13120
2016-06-06T09:30:45.646Z,13048
2016-06-06T09:31:31.523Z,13016
2016-06-06T09:32:31.526Z,12964
2016-06-06T09:33:31.576Z,12924
2016-06-06T09:34:31.610Z,12884
2016-06-06T09:35:31.645Z,12824
2016-06-06T09:36:45.897Z,12748
2016-06-06T09:37:31.712Z,12732
2016-06-06T09:38:31.433Z,12680
2016-06-06T09:39:31.795Z,12608
2016-06-06T09:40:31.814Z,12552
2016-06-06T09:41:31.879Z,12456
2016-06-06T09:42:45.913Z,12476
2016-06-06T09:43:31.931Z,12412
2016-06-06T09:44:32.605Z,12384
2016-06-06T09:45:31.828Z,12348
2016-06-06T09:46:32.002Z,12312
2016-06-06T09:47:32.052Z,12252
2016-06-06T09:48:32.085Z,12220
2016-06-06T09:49:32.103Z,12184
2016-06-06T09:50:32.137Z,12136
2016-06-06T09:51:32.187Z,12092
2016-06-06T09:52:32.221Z,12068
2016-06-06T09:53:32.255Z,12028
2016-06-06T09:54:32.274Z,11984
2016-06-06T09:55:32.307Z,11956
2016-06-06T09:57:46.563Z,11864
2016-06-06T09:58:46.596Z,11832
2016-06-06T10:00:46.665Z,11764
2016-06-06T10:01:32.511Z,11724
2016-06-06T10:02:46.732Z,11660
2016-06-06T10:03:46.766Z,11644
2016-06-06T10:04:32.628Z,11620
2016-06-06T10:05:32.475Z,11540
2016-06-06T10:06:32.665Z,11516
2016-06-06T10:09:32.782Z,11444
2016-06-06T10:11:32.851Z,11396
2016-06-06T10:13:32.746Z,11284
2016-06-06T10:14:33.625Z,11232
2016-06-06T10:15:32.970Z,11208
2016-06-06T10:16:32.989Z,11172
2016-06-06T10:17:33.022Z,11160
2016-06-06T10:18:47.260Z,11100
2016-06-06T10:19:33.091Z,11068
2016-06-06T10:20:33.125Z,10984
2016-06-06T10:22:33.192Z,10964
2016-06-06T10:23:33.227Z,10916
2016-06-06T10:24:33.260Z,10868
2016-06-06T10:25:33.294Z,10860
2016-06-06T10:26:33.328Z,10784
2016-06-06T10:27:33.346Z,10764
2016-06-06T10:28:33.395Z,10672
2016-06-06T10:29:34.102Z,10616
2016-06-06T10:30:33.448Z,10592
2016-06-06T10:31:47.670Z,10572
2016-06-06T10:32:47.718Z,10552
2016-06-06T10:33:33.550Z,10516
2016-06-06T10:34:47.771Z,10460
2016-06-06T10:37:33.686Z,10368
2016-06-06T10:38:33.547Z,10328
2016-06-06T10:39:33.754Z,10276
2016-06-06T10:40:33.772Z,10224
2016-06-06T10:41:33.806Z,10172
2016-06-06T10:42:33.839Z,10148
2016-06-06T10:44:34.611Z,10084
2016-06-06T10:45:33.629Z,10040
2016-06-06T10:46:33.960Z,9988
2016-06-06T10:47:48.181Z,9908
2016-06-06T10:48:48.231Z,9820
2016-06-06T10:49:38.124Z,9820
2016-06-06T10:50:48.283Z,9736
2016-06-06T10:51:34.130Z,9700
2016-06-06T10:52:48.352Z,9660
2016-06-06T10:53:34.182Z,9608
2016-06-06T10:54:34.216Z,9552
2016-06-06T10:55:34.250Z,9520
2016-06-06T10:56:34.330Z,9444
2016-06-06T10:57:34.318Z,9416
2016-06-06T10:58:34.335Z,9372
2016-06-06T10:59:35.213Z,9328
2016-06-06T11:00:34.404Z,9296
2016-06-06T11:01:48.469Z,9224
2016-06-06T11:02:34.471Z,9192
2016-06-06T11:03:48.677Z,9128
2016-06-06T11:04:34.524Z,9120
2016-06-06T11:05:48.746Z,9048
2016-06-06T11:06:34.593Z,9024
2016-06-06T11:07:34.610Z,8972
2016-06-06T11:08:34.659Z,8952
2016-06-06T11:09:48.881Z,8896
2016-06-06T11:10:34.712Z,8872
2016-06-06T11:11:34.746Z,8812
2016-06-06T11:12:34.780Z,8780
2016-06-06T11:13:34.814Z,8716
2016-06-06T11:14:35.129Z,8584
2016-06-06T11:15:34.866Z,8372
2016-06-06T11:16:49.087Z,8176
2016-06-06T11:17:49.121Z,8016
2016-06-06T11:18:49.156Z,7848
2016-06-06T11:19:49.189Z,7704
2016-06-06T11:20:35.036Z,7588
2016-06-06T11:21:34.914Z,7452
2016-06-06T11:22:35.072Z,7316
2016-06-06T11:23:35.106Z,7188
2016-06-06T11:24:35.141Z,7072
2016-06-06T11:25:35.033Z,6956
2016-06-06T11:26:35.208Z,6840
2016-06-06T11:27:35.086Z,6736
2016-06-06T11:28:35.119Z,6632
2016-06-06T11:29:35.154Z,6544
2016-06-06T11:30:35.329Z,6444
2016-06-06T11:31:35.206Z,6336
2016-06-06T11:32:35.396Z,6276
2016-06-06T11:33:35.415Z,6220
2016-06-06T11:34:35.448Z,6144
2016-06-06T11:35:35.498Z,6072
2016-06-06T11:36:49.688Z,5992
2016-06-06T11:38:35.568Z,5928
2016-06-06T11:39:35.603Z,5836
2016-06-06T11:40:35.636Z,5776
2016-06-06T11:41:35.654Z,5744
2016-06-06T11:42:35.689Z,5696
2016-06-06T11:43:49.754Z,5664
2016-06-06T11:44:35.756Z,5600
2016-06-06T11:45:50.040Z,5536
2016-06-06T11:46:35.809Z,5540
2016-06-06T11:47:35.827Z,5512
2016-06-06T11:49:35.880Z,5408
2016-06-06T11:50:35.914Z,5412
2016-06-06T11:51:35.947Z,5428
2016-06-06T11:53:50.187Z,5396
2016-06-06T11:54:36.033Z,5348
2016-06-06T11:55:35.911Z,5336
2016-06-06T11:56:36.102Z,5312
2016-06-06T11:57:35.979Z,5320
2016-06-06T11:58:35.997Z,5320
2016-06-06T11:59:36.812Z,5268
2016-06-06T12:00:36.066Z,5300
2016-06-06T12:01:37.115Z,5252
2016-06-06T12:02:36.289Z,5236
2016-06-06T12:03:36.308Z,5276
2016-06-06T12:04:36.342Z,5276
2016-06-06T12:05:36.219Z,5316
2016-06-06T12:06:36.409Z,5192
2016-06-06T12:07:36.288Z,5296
2016-06-06T12:08:36.477Z,5340
2016-06-06T12:09:50.683Z,5232
2016-06-06T12:10:36.515Z,5296
2016-06-06T12:11:36.548Z,5456
2016-06-06T12:12:36.567Z,5428
2016-06-06T12:13:36.601Z,5416
2016-06-06T12:14:37.275Z,5540
2016-06-06T12:15:36.668Z,5436
2016-06-06T12:16:36.687Z,5412
2016-06-06T12:17:36.720Z,5368
2016-06-06T12:18:36.770Z,5660
2016-06-06T12:19:36.789Z,5208
2016-06-06T12:20:36.822Z,5404
2016-06-06T12:21:36.841Z,5892
2016-06-06T12:22:51.062Z,5508
2016-06-06T12:23:51.096Z,5128
2016-06-06T12:24:36.927Z,5892
2016-06-06T12:25:51.147Z,5256
2016-06-06T12:26:37.010Z,6204
2016-06-06T12:27:37.013Z,5876
2016-06-06T12:28:37.046Z,6248
2016-06-06T12:29:37.268Z,6004
2016-06-06T12:30:37.115Z,5936
2016-06-06T12:31:37.149Z,6000
2016-06-06T12:32:51.355Z,6008
2016-06-06T12:34:37.250Z,7132
2016-06-06T12:35:37.285Z,7440
2016-06-06T12:36:37.302Z,5044
2016-06-06T12:37:51.899Z,8500
2016-06-06T12:38:37.214Z,6532
2016-06-06T12:39:37.389Z,6948
2016-06-06T12:40:51.610Z,6200
2016-06-06T12:41:37.488Z,5176
2016-06-06T12:42:37.475Z,7692
2016-06-06T12:43:37.510Z,6088
2016-06-06T12:45:37.561Z,5900
2016-06-06T12:46:51.767Z,7188
2016-06-06T12:47:51.801Z,7624
2016-06-06T12:48:37.648Z,6996
2016-06-06T12:49:37.681Z,6948
2016-06-06T12:50:37.715Z,7616
2016-06-06T12:51:37.578Z,5764
2016-06-06T12:52:37.767Z,7336
2016-06-06T12:53:37.645Z,6060
2016-06-06T12:54:37.820Z,6236
2016-06-06T12:55:37.854Z,7048
2016-06-06T12:56:37.872Z,7116
2016-06-06T12:57:37.905Z,7196
2016-06-06T12:58:37.783Z,6508
2016-06-06T12:59:38.068Z,6604
2016-06-06T13:00:38.008Z,6536
2016-06-06T13:01:38.027Z,6364
2016-06-06T13:02:38.060Z,6864
2016-06-06T13:03:38.079Z,6916
2016-06-06T13:04:52.299Z,7320
2016-06-06T13:05:38.131Z,6488
2016-06-06T13:06:38.165Z,6408
2016-06-06T13:07:38.042Z,6736
2016-06-06T13:08:38.233Z,6820
2016-06-06T13:09:52.438Z,6172
2016-06-06T13:10:37.973Z,6840
2016-06-06T13:11:52.506Z,5844
2016-06-06T13:12:52.524Z,6008
2016-06-06T13:13:52.574Z,6412
2016-06-06T13:14:38.359Z,6000
2016-06-06T13:15:38.267Z,7004
2016-06-06T13:16:38.457Z,7228
2016-06-06T13:17:38.475Z,6504
2016-06-06T13:19:38.543Z,6256
2016-06-06T13:20:38.578Z,6432
2016-06-06T13:21:38.611Z,6320
2016-06-06T13:22:52.817Z,6708
2016-06-06T13:23:38.664Z,5784
2016-06-06T13:24:38.541Z,7224
2016-06-06T13:25:52.903Z,7144
2016-06-06T13:26:52.953Z,7920
2016-06-06T13:27:52.971Z,6212
2016-06-06T13:28:53.005Z,7076
2016-06-06T13:29:39.242Z,7112
2016-06-06T13:30:38.869Z,5544
2016-06-06T13:31:38.904Z,7948
2016-06-06T13:32:38.938Z,6468
2016-06-06T13:33:38.955Z,7028
2016-06-06T13:34:38.990Z,7436
2016-06-06T13:35:39.055Z,7036
2016-06-06T13:36:38.746Z,6508
2016-06-06T13:37:39.076Z,5664
2016-06-06T13:38:39.094Z,8412
2016-06-06T13:39:53.316Z,6988
2016-06-06T13:41:39.196Z,5668
2016-06-06T13:42:39.229Z,6184
2016-06-06T13:43:39.249Z,6252
2016-06-06T13:44:53.346Z,6004
2016-06-06T13:45:39.317Z,6264
2016-06-06T13:46:39.350Z,6284
2016-06-06T13:47:39.385Z,6932
2016-06-06T13:48:39.387Z,6168
2016-06-06T13:49:39.420Z,6488
2016-06-06T13:51:53.676Z,5864
2016-06-06T13:52:53.695Z,6024
2016-06-06T13:53:39.541Z,6192
2016-06-06T13:55:39.594Z,5800
2016-06-06T13:56:39.627Z,6040
2016-06-06T13:57:53.833Z,6056
2016-06-06T13:58:39.679Z,5980
2016-06-06T13:59:54.119Z,6056
2016-06-06T14:00:53.919Z,5984
2016-06-06T14:01:39.766Z,5960
2016-06-06T14:02:39.659Z,6176
2016-06-06T14:03:39.818Z,5884
2016-06-06T14:04:39.868Z,6036
2016-06-06T14:06:39.905Z,5856
2016-06-06T14:07:39.938Z,5812
2016-06-06T14:08:39.988Z,5908
2016-06-06T14:09:40.006Z,5940
2016-06-06T14:11:40.058Z,5832
2016-06-06T14:12:54.280Z,5800
2016-06-06T14:13:40.110Z,5824
2016-06-06T14:14:42.223Z,5724
2016-06-06T14:16:40.197Z,5872
2016-06-06T14:17:40.231Z,5868
2016-06-06T14:18:40.108Z,5908
2016-06-06T14:19:40.283Z,5928
2016-06-06T14:21:40.350Z,5920
2016-06-06T14:22:40.228Z,5920
2016-06-06T14:23:40.419Z,5976
2016-06-06T14:24:40.437Z,5968
2016-06-06T14:25:40.471Z,5988
2016-06-06T14:27:40.522Z,5980
2016-06-06T14:28:40.542Z,6012
2016-06-06T14:29:41.919Z,5976
2016-06-06T14:30:40.608Z,5920
2016-06-06T14:31:40.628Z,5900
2016-06-06T14:32:40.661Z,5872
2016-06-06T14:33:40.696Z,5884
2016-06-06T14:34:40.713Z,5884
2016-06-06T14:35:40.747Z,5888
2016-06-06T14:36:40.766Z,5896
2016-06-06T14:37:40.800Z,5916
2016-06-06T14:38:40.834Z,5912
2016-06-06T14:39:40.869Z,5916
2016-06-06T14:41:55.107Z,5972
2016-06-06T14:42:40.954Z,5916
2016-06-06T14:43:40.988Z,5984
2016-06-06T14:44:41.663Z,5716
2016-06-06T14:45:40.915Z,5024
2016-06-06T14:46:41.059Z,3720
2016-06-06T14:47:55.279Z,5896
2016-06-06T14:48:41.112Z,5912
2016-06-06T14:49:41.145Z,5840
2016-06-06T14:50:41.178Z,5900
2016-06-06T14:51:41.056Z,5904
2016-06-06T14:52:41.075Z,5928
2016-06-06T14:54:41.283Z,5968
2016-06-06T14:55:41.317Z,5880
2016-06-06T14:56:41.351Z,3584
2016-06-06T14:57:41.369Z,5828
2016-06-06T14:58:41.404Z,5784
2016-06-06T14:59:55.609Z,5784
2016-06-06T15:00:42.112Z,5788
2016-06-06T15:01:41.442Z,5820
2016-06-06T15:02:41.524Z,5804
2016-06-06T15:03:55.730Z,5780
2016-06-06T15:04:41.575Z,5792
2016-06-06T15:05:41.610Z,5784
2016-06-06T15:06:41.628Z,5812
2016-06-06T15:07:41.677Z,5812
2016-06-06T15:08:41.681Z,5856
2016-06-06T15:09:41.714Z,5856
2016-06-06T15:10:41.732Z,5896
2016-06-06T15:12:41.801Z,5928
2016-06-06T15:13:41.818Z,5904
2016-06-06T15:14:41.884Z,3224
2016-06-06T15:16:41.904Z,3276
2016-06-06T15:17:56.126Z,3304
2016-06-06T15:18:41.988Z,3372
2016-06-06T15:19:56.023Z,3416
2016-06-06T15:20:42.026Z,3480
2016-06-06T15:21:42.059Z,3556
2016-06-06T15:22:42.078Z,3812
2016-06-06T15:23:42.112Z,6100
2016-06-06T15:24:42.130Z,6432
2016-06-06T15:25:42.164Z,5468
2016-06-06T15:26:42.197Z,6372
2016-06-06T15:27:42.216Z,6584
2016-06-06T15:28:42.250Z,5080
2016-06-06T15:29:56.331Z,6796
2016-06-06T15:30:56.350Z,6904
2016-06-06T15:31:42.336Z,7160
2016-06-06T15:32:56.542Z,7220
2016-06-06T15:33:42.388Z,7168
2016-06-06T15:34:42.423Z,7276
2016-06-06T15:35:56.644Z,7096
2016-06-06T15:36:42.475Z,6744
2016-06-06T15:37:42.493Z,7272
2016-06-06T15:38:42.527Z,7064
2016-06-06T15:39:42.561Z,6944
2016-06-06T15:40:42.579Z,6832
2016-06-06T15:41:42.613Z,6668
2016-06-06T15:42:42.646Z,4076
2016-06-06T15:43:42.665Z,4000
2016-06-06T15:44:57.387Z,4604
2016-06-06T15:45:43.124Z,6104
2016-06-06T15:46:42.752Z,6012
2016-06-06T15:47:42.629Z,5916
2016-06-06T15:48:42.819Z,6124
2016-06-06T15:49:57.026Z,6116
2016-06-06T15:50:57.060Z,6136
2016-06-06T15:51:42.906Z,3936
2016-06-06T15:52:42.924Z,5980
2016-06-06T15:53:42.957Z,3976
2016-06-06T15:54:42.976Z,5864
2016-06-06T15:55:57.042Z,3796
2016-06-06T15:56:43.028Z,3760
2016-06-06T15:57:43.078Z,4048
2016-06-06T15:58:42.956Z,5832
2016-06-06T15:59:57.318Z,5692
2016-06-06T16:00:43.883Z,5664
2016-06-06T16:01:57.370Z,5644
2016-06-06T16:02:43.232Z,5616
2016-06-06T16:03:43.078Z,5580
2016-06-06T16:04:43.269Z,5524
2016-06-06T16:05:57.475Z,5508
2016-06-06T16:06:43.321Z,5456
2016-06-06T16:07:43.355Z,5096
2016-06-06T16:08:43.373Z,3608
2016-06-06T16:09:43.251Z,3736
2016-06-06T16:10:43.425Z,3248
2016-06-06T16:11:43.460Z,3252
2016-06-06T16:12:43.494Z,3248
2016-06-06T16:13:43.575Z,3240
2016-06-06T16:14:43.546Z,3236
2016-06-06T16:15:44.096Z,3260
2016-06-06T16:16:43.598Z,5408
2016-06-06T16:17:57.663Z,5520
2016-06-06T16:18:43.650Z,5524
2016-06-06T16:19:43.528Z,5540
2016-06-06T16:20:57.921Z,5596
2016-06-06T16:21:43.737Z,3968
2016-06-06T16:22:57.958Z,5672
2016-06-06T16:23:43.788Z,5684
2016-06-06T16:24:43.682Z,5652
2016-06-06T16:25:43.857Z,5596
2016-06-06T16:26:43.890Z,5532
2016-06-06T16:27:43.909Z,5420
2016-06-06T16:28:43.943Z,5332
2016-06-06T16:29:44.383Z,5288
2016-06-06T16:30:44.011Z,5248
2016-06-06T16:31:44.029Z,5216
2016-06-06T16:32:44.047Z,5216
2016-06-06T16:33:44.081Z,5192
2016-06-06T16:34:44.115Z,5132
2016-06-06T16:35:44.134Z,5040
2016-06-06T16:36:44.152Z,4980
2016-06-06T16:37:58.373Z,4972
2016-06-06T16:38:58.408Z,4948
2016-06-06T16:39:44.238Z,4916
2016-06-06T16:40:44.272Z,4860
2016-06-06T16:41:44.150Z,4820
2016-06-06T16:42:44.329Z,4780
2016-06-06T16:43:44.368Z,4776
2016-06-06T16:44:44.656Z,4764
2016-06-06T16:45:44.867Z,4720
2016-06-06T16:46:44.469Z,4680
2016-06-06T16:47:44.490Z,4656
2016-06-06T16:48:44.525Z,4596
2016-06-06T16:49:44.544Z,4540
2016-06-06T16:50:44.580Z,4508
2016-06-06T16:51:44.615Z,4480
2016-06-06T16:52:58.822Z,4456
2016-06-06T16:53:44.685Z,4444
2016-06-06T16:54:58.876Z,4424
2016-06-06T16:55:44.723Z,4416
2016-06-06T16:56:44.758Z,4396
2016-06-06T16:57:44.777Z,4384
2016-06-06T16:59:59.517Z,4356
2016-06-06T17:00:44.880Z,4352
2016-06-06T17:01:44.898Z,4348
2016-06-06T17:02:59.120Z,4328
2016-06-06T17:03:44.950Z,4316
2016-06-06T17:04:44.984Z,4292
2016-06-06T17:05:45.002Z,4272
2016-06-06T17:06:45.037Z,4244
2016-06-06T17:07:59.399Z,4208
2016-06-06T17:08:45.089Z,4192
2016-06-06T17:09:45.123Z,4164
2016-06-06T17:11:45.003Z,4112
2016-06-06T17:12:45.209Z,4096
2016-06-06T17:13:45.321Z,4084
2016-06-06T17:14:45.261Z,4068
2016-06-06T17:15:45.874Z,4048
2016-06-06T17:16:45.157Z,4028
2016-06-06T17:17:45.332Z,4008
2016-06-06T17:18:45.366Z,3996
2016-06-06T17:19:45.384Z,3972
2016-06-06T17:20:45.418Z,3948
2016-06-06T17:21:45.296Z,3928
2016-06-06T17:22:45.377Z,3908
2016-06-06T17:23:45.504Z,3892
2016-06-06T17:24:45.538Z,3880
2016-06-06T17:25:59.743Z,3868
2016-06-06T17:26:45.590Z,3856
2016-06-06T17:27:45.609Z,3840
2016-06-06T17:28:45.486Z,3816
2016-06-06T17:29:46.005Z,3784
2016-06-06T17:30:46.101Z,3760
2016-06-06T17:31:45.713Z,3736
2016-06-06T17:32:45.748Z,3708
2016-06-06T17:34:45.799Z,3664
2016-06-06T17:35:45.833Z,3640
2016-06-06T17:37:00.070Z,3608
2016-06-06T17:37:45.916Z,3588
2016-06-06T17:38:45.920Z,3560
2016-06-06T17:40:00.125Z,3532
2016-06-06T17:40:45.955Z,3512
2016-06-06T17:41:46.006Z,3480
2016-06-06T17:42:46.024Z,3456
2016-06-06T17:43:46.042Z,3436
2016-06-06T17:44:46.107Z,3408
2016-06-06T17:46:00.142Z,3376
2016-06-06T17:46:45.988Z,3356
2016-06-06T17:47:46.162Z,3320
2016-06-06T17:48:46.181Z,3292
2016-06-06T17:49:46.215Z,3260
2016-06-06T17:50:45.951Z,3228
2016-06-06T17:51:46.282Z,3200
2016-06-06T17:52:46.301Z,3172
2016-06-06T17:53:46.335Z,3148
2016-06-06T17:54:46.368Z,3120
2016-06-06T17:55:46.371Z,3100
2016-06-06T17:57:00.593Z,3060
2016-06-06T17:58:00.611Z,3028
2016-06-06T17:58:46.457Z,3004
2016-06-06T17:59:46.945Z,2972
2016-06-06T18:00:46.526Z,2948
2016-06-06T18:02:46.562Z,2880
2016-06-06T18:03:46.596Z,2852
2016-06-06T18:04:46.614Z,2820
2016-06-06T18:06:46.667Z,2752
2016-06-06T18:07:46.700Z,2720
2016-06-06T18:08:46.734Z,2684
2016-06-06T18:09:46.753Z,2644
2016-06-06T18:11:00.974Z,2604
2016-06-06T18:11:46.821Z,2580
2016-06-06T18:13:01.027Z,2528
2016-06-06T18:14:00.905Z,2492
2016-06-06T18:14:48.391Z,2460
2016-06-06T18:15:46.957Z,2416
2016-06-06T18:16:46.944Z,2368
2016-06-06T18:17:46.962Z,2316
2016-06-06T18:18:47.011Z,2260
2016-06-06T18:20:47.064Z,2148
2016-06-06T18:21:47.082Z,2096
2016-06-06T18:23:47.134Z,2012
2016-06-06T18:25:01.357Z,1964
2016-06-06T18:25:47.186Z,1936
2016-06-06T18:28:01.426Z,1852
2016-06-06T18:28:47.101Z,1812
2016-06-06T18:30:01.509Z,1756
2016-06-06T18:30:47.888Z,1716
2016-06-06T18:31:47.359Z,1660
2016-06-06T18:32:47.377Z,1596
2016-06-06T18:33:47.395Z,1520
2016-06-06T18:34:47.273Z,1444
2016-06-06T18:35:47.464Z,1372
2016-06-06T18:36:47.481Z,1320
2016-06-06T18:38:47.534Z,1248
2016-06-06T18:39:47.552Z,1220
2016-06-06T18:40:47.586Z,1196
2016-06-06T18:42:01.823Z,1160
2016-06-06T18:42:47.638Z,1140
2016-06-06T18:43:47.517Z,1108
2016-06-06T18:44:48.347Z,1084
2016-06-06T18:46:01.913Z,1052
2016-06-06T18:46:47.743Z,1032
2016-06-06T18:47:47.621Z,1008
2016-06-06T18:48:47.811Z,980
2016-06-06T18:49:47.829Z,956
2016-06-06T18:50:47.707Z,928
2016-06-06T18:51:47.882Z,904
2016-06-06T18:52:47.760Z,876
2016-06-06T18:53:47.777Z,852
2016-06-06T18:54:47.951Z,828
2016-06-06T18:55:47.986Z,800
2016-06-06T18:56:48.004Z,776
2016-06-06T18:57:48.038Z,748
2016-06-06T18:58:48.057Z,724
2016-06-06T18:59:48.496Z,696
2016-06-06T19:01:02.295Z,668
2016-06-06T19:01:48.142Z,644
2016-06-06T19:02:48.176Z,620
2016-06-06T19:03:48.054Z,596
2016-06-06T19:04:48.213Z,568
2016-06-06T19:05:48.247Z,544
2016-06-06T19:06:48.281Z,520
2016-06-06T19:07:48.300Z,496
2016-06-06T19:08:48.333Z,472
2016-06-06T19:09:48.352Z,452
2016-06-06T19:10:48.386Z,428
2016-06-06T19:12:48.422Z,388
2016-06-06T19:13:48.456Z,364
2016-06-06T19:15:02.661Z,340
2016-06-06T19:16:49.042Z,308
2016-06-06T19:17:49.889Z,284
2016-06-06T19:19:48.613Z,252
2016-06-06T19:20:48.632Z,236
2016-06-06T19:21:48.666Z,220
2016-06-06T19:22:48.699Z,204
2016-06-06T19:23:48.718Z,192
2016-06-06T19:24:48.595Z,176
2016-06-06T19:25:48.770Z,164
2016-06-06T19:26:48.804Z,152
2016-06-06T19:27:48.821Z,140
2016-06-06T19:28:48.840Z,128
2016-06-06T19:30:03.077Z,116
2016-06-06T19:30:48.893Z,108
2016-06-06T19:31:48.770Z,100
2016-06-06T19:33:48.979Z,80
2016-06-06T19:35:04.231Z,72
2016-06-06T19:35:49.047Z,68
2016-06-06T19:36:49.050Z,60
2016-06-06T19:37:49.099Z,52
2016-06-06T19:38:49.117Z,48
2016-06-06T19:39:49.136Z,44
2016-06-06T19:40:49.154Z,40
2016-06-06T19:41:49.188Z,36
2016-06-06T19:43:49.240Z,28
2016-06-06T19:44:49.102Z,24
2016-06-06T19:45:49.277Z,24
2016-06-06T19:47:03.514Z,20
2016-06-06T19:47:49.344Z,20
2016-06-06T19:49:04.332Z,16
2016-06-06T19:50:03.443Z,12
2016-06-06T19:50:49.415Z,12
2016-06-06T19:51:49.449Z,8
2016-06-06T19:52:49.468Z,8
2016-06-06T19:53:49.501Z,8
2016-06-06T19:54:49.519Z,8
2016-06-06T19:55:49.538Z,4
2016-06-06T19:56:49.416Z,8
2016-06-06T19:58:49.624Z,8
2016-06-06T19:59:49.501Z,4
2016-06-06T20:00:49.676Z,4
2016-06-06T20:01:49.710Z,4
2016-06-06T20:02:49.728Z,4
2016-06-06T20:04:03.934Z,4
2016-06-06T20:05:18.016Z,0
2016-06-06T20:05:50.127Z,0
2016-06-06T20:06:49.834Z,4
2016-06-06T20:07:49.851Z,4
2016-06-06T20:08:49.886Z,4
2016-06-06T20:09:49.903Z,0
2016-06-06T20:10:49.781Z,0
2016-06-06T20:11:49.956Z,0
2016-06-06T20:12:49.974Z,0
2016-06-06T20:13:50.008Z,0
2016-06-06T20:14:50.042Z,0
2016-06-06T20:15:50.060Z,0
2016-06-06T20:16:50.094Z,0
2016-06-06T20:17:50.113Z,0
2016-06-06T20:18:50.147Z,0
2016-06-06T20:20:04.368Z,0
2016-06-06T20:21:04.387Z,0
2016-06-06T20:21:50.217Z,0
2016-06-06T20:22:50.079Z,0
2016-06-06T20:23:50.254Z,0
2016-06-06T20:24:50.288Z,0
2016-06-06T20:25:50.321Z,0
2016-06-06T20:26:50.340Z,0
2016-06-06T20:27:50.358Z,0
2016-06-06T20:28:50.440Z,0
2016-06-06T20:29:50.426Z,0
2016-06-06T20:30:50.445Z,0
2016-06-06T20:32:50.497Z,0
2016-06-06T20:33:50.516Z,0
2016-06-06T20:34:50.799Z,0
2016-06-06T20:36:04.770Z,0
2016-06-06T20:36:50.586Z,0
2016-06-06T20:37:50.620Z,0
2016-06-06T20:38:50.497Z,0
2016-06-06T20:39:50.672Z,0
2016-06-06T20:40:50.534Z,0
2016-06-06T20:43:04.945Z,0
2016-06-06T20:43:50.792Z,0
2016-06-06T20:44:50.810Z,0
2016-06-06T20:47:04.878Z,0
2016-06-06T20:47:50.866Z,0
2016-06-06T20:48:50.899Z,0
2016-06-06T20:49:51.464Z,0
2016-06-06T20:50:51.904Z,0
2016-06-06T20:51:50.969Z,0
2016-06-06T20:52:51.004Z,0
2016-06-06T20:53:51.038Z,0
2016-06-06T20:54:51.055Z,0
2016-06-06T20:55:51.074Z,0
2016-06-06T20:56:51.093Z,0
2016-06-06T20:57:51.127Z,0
2016-06-06T20:58:51.145Z,0
2016-06-06T20:59:51.179Z,0
2016-06-06T21:00:51.197Z,0
2016-06-06T21:02:51.250Z,0
2016-06-06T21:03:51.267Z,0
2016-06-06T21:04:51.801Z,0
2016-06-06T21:05:51.743Z,0
2016-06-06T21:07:05.542Z,0
2016-06-06T21:08:05.559Z,0
2016-06-06T21:08:51.406Z,0
2016-06-06T21:10:51.459Z,0
2016-06-06T21:11:51.320Z,0
2016-06-06T21:12:51.495Z,0
2016-06-06T21:13:51.529Z,0
2016-06-06T21:14:51.548Z,0
2016-06-06T21:16:05.612Z,0
2016-06-06T21:17:51.617Z,0
2016-06-06T21:18:51.653Z,0
2016-06-06T21:20:52.110Z,0
2016-06-06T21:21:51.738Z,0
2016-06-06T21:22:51.756Z,0
2016-06-06T21:24:05.805Z,0
2016-06-06T21:24:51.808Z,0
2016-06-06T21:25:51.827Z,0
2016-06-06T21:26:51.861Z,0
2016-06-06T21:27:51.879Z,0
2016-06-06T21:29:51.932Z,0
2016-06-06T21:30:51.949Z,0
2016-06-06T21:32:06.171Z,0
2016-06-06T21:32:52.001Z,0
2016-06-06T21:33:51.864Z,0
2016-06-06T21:34:52.320Z,0
2016-06-06T21:35:53.385Z,0
2016-06-06T21:36:52.090Z,0
2016-06-06T21:37:52.140Z,0
2016-06-06T21:38:52.143Z,0
2016-06-06T21:40:06.365Z,0
2016-06-06T21:40:52.195Z,0
2016-06-06T21:41:52.214Z,0
2016-06-06T21:42:52.247Z,0
2016-06-06T21:43:52.266Z,0
2016-06-06T21:44:52.300Z,0
2016-06-06T21:45:52.317Z,0
2016-06-06T21:47:06.539Z,0
2016-06-06T21:47:52.370Z,0
2016-06-06T21:49:53.469Z,0
2016-06-06T21:50:53.722Z,0
2016-06-06T21:51:52.475Z,0
2016-06-06T21:52:52.494Z,0
2016-06-06T21:53:52.511Z,0
2016-06-06T21:54:52.561Z,0
2016-06-06T21:56:06.766Z,0
2016-06-06T21:56:52.582Z,0
2016-06-06T21:57:52.616Z,0
2016-06-06T21:58:52.650Z,0
2016-06-06T21:59:52.668Z,0
2016-06-06T22:01:52.721Z,0
2016-06-06T22:02:52.583Z,0
2016-06-06T22:04:52.791Z,0
2016-06-06T22:05:52.825Z,0
2016-06-06T22:06:52.828Z,0
2016-06-06T22:07:52.862Z,0
2016-06-06T22:09:07.068Z,0
2016-06-06T22:09:52.914Z,0
2016-06-06T22:11:07.120Z,0
2016-06-06T22:11:52.967Z,0
2016-06-06T22:12:53.001Z,0
2016-06-06T22:13:53.018Z,0
2016-06-06T22:14:53.037Z,0
2016-06-06T22:15:52.915Z,0
2016-06-06T22:17:53.107Z,0
2016-06-06T22:18:53.689Z,0
2016-06-06T22:19:53.159Z,0
2016-06-06T22:20:53.194Z,0
2016-06-06T22:21:53.211Z,0
2016-06-06T22:22:53.246Z,0
2016-06-06T22:23:53.264Z,0
2016-06-06T22:24:53.283Z,0
2016-06-06T22:26:07.332Z,0
2016-06-06T22:26:53.397Z,0
2016-06-06T22:27:53.352Z,0
2016-06-06T22:28:53.433Z,0
2016-06-06T22:29:53.405Z,0
2016-06-06T22:31:07.627Z,0
2016-06-06T22:31:53.458Z,0
2016-06-06T22:32:53.913Z,0
2016-06-06T22:33:54.901Z,0
2016-06-06T22:34:53.529Z,0
2016-06-06T22:35:53.562Z,0
2016-06-06T22:36:53.580Z,0
2016-06-06T22:37:53.599Z,0
2016-06-06T22:38:53.460Z,0
2016-06-06T22:39:53.651Z,0
2016-06-06T22:41:07.857Z,0
2016-06-06T22:41:53.687Z,0
2016-06-06T22:43:07.909Z,0
2016-06-06T22:43:53.739Z,0
2016-06-06T22:44:53.773Z,0
2016-06-06T22:46:53.826Z,0
2016-06-06T22:47:53.845Z,0
2016-06-06T22:48:53.862Z,0
2016-06-06T22:49:53.880Z,0
2016-06-06T22:50:54.742Z,0
2016-06-06T22:51:53.949Z,0
2016-06-06T22:52:53.967Z,0
2016-06-06T22:53:53.986Z,0
2016-06-06T22:54:53.847Z,0
2016-06-06T22:55:54.038Z,0
2016-06-06T22:56:54.071Z,0
2016-06-06T22:57:54.091Z,0
2016-06-06T22:59:08.296Z,0
2016-06-06T22:59:54.141Z,0
2016-06-06T23:00:54.160Z,0
2016-06-06T23:01:54.194Z,0
2016-06-06T23:02:54.197Z,0
2016-06-06T23:03:54.232Z,0
2016-06-06T23:05:54.612Z,0
2016-06-06T23:06:54.146Z,0
2016-06-06T23:08:08.524Z,0
2016-06-06T23:08:54.354Z,0
2016-06-06T23:09:54.372Z,0
2016-06-06T23:10:54.406Z,0
2016-06-06T23:11:54.424Z,0
2016-06-06T23:13:08.631Z,0